Time;durP1;ratioP1;P1;durP2;ratioP2;P2;SDS_P1;SDS_P2;PMS_P1;PMS_P2;Temp;Humidity;BMP_temperature;BMP_pressure;BME280_temperature;BME280_humidity;BME280_pressure;Samples;Min_cycle;Max_cycle;Signal;HPM_P1;HPM_P2
2024/01/29 00:02:11;;;;;;;43.00;24.00;;;;;;;2.35;68.57;102150.14;109555;1254;57319;-66
2024/01/29 00:04:38;;;;;;;42.00;23.70;;;;;;;2.34;68.50;102153.45;109596;1253;57394;-67
2024/01/29 00:07:06;;;;;;;41.50;23.70;;;;;;;2.33;68.55;102156.60;109402;1253;64289;-68
2024/01/29 00:09:34;;;;;;;41.70;24.60;;;;;;;2.32;68.64;102160.09;109592;1253;57469;-67
2024/01/29 00:12:02;;;;;;;44.10;24.60;;;;;;;2.33;68.69;102164.44;109577;1253;63716;-67
2024/01/29 00:14:29;;;;;;;41.80;24.50;;;;;;;2.35;68.59;102166.13;109414;1253;57387;-68
2024/01/29 00:16:58;;;;;;;39.80;23.60;;;;;;;2.35;68.61;102167.86;109548;1254;57397;-68
2024/01/29 00:19:25;;;;;;;40.20;23.60;;;;;;;2.35;68.55;102176.20;109566;1252;62892;-67
2024/01/29 00:21:53;;;;;;;40.80;23.80;;;;;;;2.35;68.52;102176.55;109459;1254;57420;-68
2024/01/29 00:24:21;;;;;;;38.90;22.80;;;;;;;2.35;68.58;102178.80;109545;1254;63721;-68
2024/01/29 00:26:50;;;;;;;40.70;24.20;;;;;;;2.37;68.59;102176.70;109264;1254;57347;-67
2024/01/29 00:29:17;;;;;;;40.90;24.80;;;;;;;2.38;68.61;102175.98;109573;1252;57429;-68
2024/01/29 00:31:45;;;;;;;43.40;24.00;;;;;;;2.37;68.58;102181.02;109527;1254;62887;-69
2024/01/29 00:34:13;;;;;;;38.50;22.30;;;;;;;2.37;68.55;102184.70;109563;1252;58193;-68
2024/01/29 00:36:41;;;;;;;38.50;23.20;;;;;;;2.37;68.59;102184.69;109497;1254;62445;-67
2024/01/29 00:39:09;;;;;;;37.90;23.30;;;;;;;2.37;68.65;102185.38;109586;1254;57356;-68
2024/01/29 00:41:37;;;;;;;37.40;23.10;;;;;;;2.36;68.57;102185.23;109404;1252;57450;-68
2024/01/29 00:44:04;;;;;;;37.00;21.60;;;;;;;2.36;68.58;102185.05;109565;1253;64220;-68
2024/01/29 00:46:32;;;;;;;38.70;23.30;;;;;;;2.36;68.46;102187.66;109470;1254;58107;-68
2024/01/29 00:49:00;;;;;;;40.60;23.80;;;;;;;2.35;68.49;102188.73;109388;1254;63800;-68
2024/01/29 00:51:27;;;;;;;36.70;21.60;;;;;;;2.36;68.57;102189.40;109522;1254;57376;-68
2024/01/29 00:53:55;;;;;;;41.30;22.50;;;;;;;2.36;68.56;102186.98;109609;1254;57312;-68
2024/01/29 00:56:22;;;;;;;38.20;22.80;;;;;;;2.34;68.46;102184.92;109553;1254;66377;-68
2024/01/29 00:58:50;;;;;;;37.60;22.50;;;;;;;2.34;68.44;102185.45;109550;1254;57415;-68
2024/01/29 01:01:17;;;;;;;36.70;23.60;;;;;;;2.34;68.44;102186.33;109436;1254;64187;-68
2024/01/29 01:03:45;;;;;;;35.90;22.70;;;;;;;2.33;68.39;102186.52;109380;1259;57450;-68
2024/01/29 01:06:13;;;;;;;33.90;22.30;;;;;;;2.33;68.46;102189.46;109494;1254;57239;-68
2024/01/29 01:08:41;;;;;;;36.20;23.10;;;;;;;2.32;68.46;102190.16;109369;1254;64378;-68
2024/01/29 01:11:08;;;;;;;38.10;23.00;;;;;;;2.32;68.38;102193.11;109276;1253;58246;-68
2024/01/29 01:13:35;;;;;;;36.40;22.40;;;;;;;2.33;68.42;102197.29;109364;1254;64031;-68
2024/01/29 01:16:03;;;;;;;36.80;22.20;;;;;;;2.33;68.38;102198.84;109350;1254;57354;-68
2024/01/29 01:18:31;;;;;;;35.30;22.10;;;;;;;2.33;68.41;102199.02;109270;1254;57367;-68
2024/01/29 01:20:59;;;;;;;37.10;22.00;;;;;;;2.34;68.34;102197.77;109384;1254;64196;-68
2024/01/29 01:23:26;;;;;;;35.60;21.70;;;;;;;2.34;68.32;102200.04;109202;1253;57391;-67
2024/01/29 01:25:54;;;;;;;35.70;21.20;;;;;;;2.34;68.35;102199.88;109405;1254;63695;-68
2024/01/29 01:28:22;;;;;;;32.70;20.70;;;;;;;2.34;68.32;102199.52;109344;1254;57291;-68
2024/01/29 01:30:49;;;;;;;33.80;20.50;;;;;;;2.35;68.32;102198.64;109302;1254;57376;-68
2024/01/29 01:33:17;;;;;;;33.80;21.60;;;;;;;2.35;68.38;102199.86;109328;1254;63319;-68
2024/01/29 01:35:45;;;;;;;34.40;21.50;;;;;;;2.35;68.33;102200.03;109260;1254;58198;-68
2024/01/29 01:38:12;;;;;;;34.90;22.10;;;;;;;2.35;68.28;102199.32;109384;1256;63839;-67
2024/01/29 01:40:40;;;;;;;31.90;20.70;;;;;;;2.36;68.25;102202.27;109348;1254;57357;-68
2024/01/29 01:43:17;;;;;;;32.70;21.10;;;;;;;2.36;68.32;102199.48;109363;1254;57485;-68
2024/01/29 01:45:44;;;;;;;32.80;20.70;;;;;;;2.34;68.25;102195.52;109390;1254;64224;-68
2024/01/29 01:48:12;;;;;;;35.00;21.10;;;;;;;2.33;68.22;102192.24;109380;1259;58229;-68
2024/01/29 01:50:40;;;;;;;32.90;20.60;;;;;;;2.32;68.23;102195.71;109152;1254;63804;-68
2024/01/29 01:53:07;;;;;;;32.30;20.10;;;;;;;2.31;68.22;102199.39;109379;1254;57367;-68
2024/01/29 01:55:35;;;;;;;30.80;20.00;;;;;;;2.29;68.20;102200.97;109346;1254;57256;-68
2024/01/29 01:58:03;;;;;;;30.80;19.70;;;;;;;2.28;68.27;102203.94;109258;1254;64141;-68
2024/01/29 02:00:32;;;;;;;33.40;20.10;;;;;;;2.29;68.22;102207.58;109429;1254;57563;-69
2024/01/29 02:03:00;;;;;;;32.30;19.70;;;;;;;2.30;68.20;102207.90;109200;1254;63787;-68
2024/01/29 02:05:27;;;;;;;30.40;19.20;;;;;;;2.31;68.26;102208.93;109348;1255;57383;-68
2024/01/29 02:07:55;;;;;;;30.90;19.60;;;;;;;2.31;68.26;102212.92;109343;1254;57451;-68
2024/01/29 02:10:23;;;;;;;30.90;19.30;;;;;;;2.32;68.25;102214.49;109263;1259;64115;-68
2024/01/29 02:12:52;;;;;;;32.10;20.10;;;;;;;2.33;68.23;102213.62;109298;1254;58430;-68
2024/01/29 02:15:20;;;;;;;34.50;20.60;;;;;;;2.34;68.21;102213.26;109184;1255;63924;-68
2024/01/29 02:17:47;;;;;;;31.70;19.50;;;;;;;2.33;68.13;102213.45;109160;1257;57435;-68
2024/01/29 02:20:15;;;;;;;31.00;19.60;;;;;;;2.32;68.15;102221.45;109256;1254;57315;-67
2024/01/29 02:22:44;;;;;;;32.60;19.30;;;;;;;2.31;68.13;102222.66;109187;1254;64135;-67
2024/01/29 02:25:14;;;;;;;30.80;19.60;;;;;;;2.31;68.11;102223.36;109293;1254;57429;-67
2024/01/29 02:27:42;;;;;;;27.80;18.20;;;;;;;2.32;68.08;102224.23;109294;1254;62458;-68
2024/01/29 02:30:10;;;;;;;32.20;20.10;;;;;;;2.32;68.05;102223.53;109263;1254;57427;-67
2024/01/29 02:32:38;;;;;;;31.50;20.10;;;;;;;2.30;68.04;102223.90;109325;1254;57377;-68
2024/01/29 02:35:06;;;;;;;30.10;18.80;;;;;;;2.30;68.02;102226.16;109153;1257;62909;-68
2024/01/29 02:37:34;;;;;;;29.10;19.90;;;;;;;2.30;68.04;102228.59;109286;1255;57383;-68
2024/01/29 02:40:04;;;;;;;30.00;19.60;;;;;;;2.29;68.00;102228.43;109267;1254;63700;-68
2024/01/29 02:42:31;;;;;;;28.80;18.50;;;;;;;2.28;68.04;102230.90;109142;1260;59927;-67
2024/01/29 02:44:59;;;;;;;29.60;19.30;;;;;;;2.26;68.04;102237.87;109285;1256;58020;-67
2024/01/29 02:47:26;;;;;;;28.90;18.70;;;;;;;2.27;68.03;102241.17;109288;1254;64962;-67
2024/01/29 02:49:54;;;;;;;28.40;18.10;;;;;;;2.27;68.03;102239.95;109174;1254;58482;-67
2024/01/29 02:52:21;;;;;;;30.30;18.30;;;;;;;2.27;68.02;102242.89;109313;1254;63936;-67
2024/01/29 02:54:49;;;;;;;27.90;18.00;;;;;;;2.28;68.02;102243.23;109169;1254;58182;-68
2024/01/29 02:57:23;;;;;;;29.60;18.90;;;;;;;2.28;68.00;102242.02;109191;1254;58156;-68
2024/01/29 02:59:51;;;;;;;29.10;18.60;;;;;;;2.26;67.95;102243.27;109270;1258;64947;-67
2024/01/29 03:02:19;;;;;;;28.20;18.40;;;;;;;2.25;67.99;102248.16;109166;1254;58202;-67
2024/01/29 03:04:47;;;;;;;27.60;17.40;;;;;;;2.23;67.98;102249.06;109269;1254;62426;-68
2024/01/29 03:07:14;;;;;;;29.30;18.00;;;;;;;2.21;67.99;102248.38;109104;1257;58262;-68
2024/01/29 03:09:42;;;;;;;29.80;18.50;;;;;;;2.23;68.00;102252.53;109161;1258;58196;-67
2024/01/29 03:12:10;;;;;;;28.70;18.50;;;;;;;2.25;68.00;102251.80;109151;1256;63644;-68
2024/01/29 03:14:38;;;;;;;29.60;18.30;;;;;;;2.26;68.01;102246.40;109155;1257;58179;-67
2024/01/29 03:17:06;;;;;;;28.50;17.90;;;;;;;2.23;68.04;102250.43;109121;1258;62494;-67
2024/01/29 03:19:34;;;;;;;29.30;18.00;;;;;;;2.25;68.01;102255.80;109125;1257;58254;-68
2024/01/29 03:22:01;;;;;;;28.40;17.50;;;;;;;2.26;67.98;102259.78;109189;1257;58283;-69
2024/01/29 03:24:29;;;;;;;26.60;17.30;;;;;;;2.24;67.99;102261.55;109206;1260;64109;-68
2024/01/29 03:26:57;;;;;;;28.70;17.50;;;;;;;2.23;68.05;102261.58;109111;1257;58281;-68
2024/01/29 03:29:25;;;;;;;27.90;17.90;;;;;;;2.24;68.08;102264.52;109163;1256;62508;-68
2024/01/29 03:31:52;;;;;;;27.60;17.40;;;;;;;2.23;68.05;102266.78;109168;1261;58300;-68
2024/01/29 03:34:20;;;;;;;28.40;16.80;;;;;;;2.25;68.00;102270.92;109180;1257;58150;-68
2024/01/29 03:36:48;;;;;;;27.40;17.20;;;;;;;2.26;67.93;102272.64;109114;1256;64891;-67
2024/01/29 03:39:16;;;;;;;26.80;17.40;;;;;;;2.26;67.93;102270.03;109189;1256;58239;-68
2024/01/29 03:41:43;;;;;;;26.80;18.00;;;;;;;2.23;68.00;102269.05;109126;1257;63737;-68
2024/01/29 03:44:13;;;;;;;27.00;18.50;;;;;;;2.22;68.04;102268.70;109115;1256;58229;-68
2024/01/29 03:46:40;;;;;;;26.60;17.60;;;;;;;2.25;68.02;102276.47;109115;1258;58062;-67
2024/01/29 03:49:08;;;;;;;29.70;18.00;;;;;;;2.28;67.95;102280.08;109147;1257;64914;-68
2024/01/29 03:51:36;;;;;;;25.20;16.90;;;;;;;2.28;67.96;102281.81;109163;1257;59243;-66
2024/01/29 03:54:03;;;;;;;29.00;17.90;;;;;;;2.28;67.97;102282.34;109169;1257;63815;-67
2024/01/29 03:56:31;;;;;;;29.20;18.20;;;;;;;2.28;67.95;102283.91;109107;1257;58185;-68
2024/01/29 03:58:59;;;;;;;28.90;18.40;;;;;;;2.29;68.00;102290.32;109178;1256;58234;-68
2024/01/29 04:01:27;;;;;;;29.30;18.20;;;;;;;2.27;68.04;102294.34;109153;1258;64971;-67
2024/01/29 04:03:58;;;;;;;28.40;17.70;;;;;;;2.26;68.04;102299.06;109155;1255;58243;-67
2024/01/29 04:06:26;;;;;;;30.10;18.20;;;;;;;2.28;68.00;102304.77;109163;1257;63828;-67
2024/01/29 04:08:54;;;;;;;30.30;18.90;;;;;;;2.30;67.96;102304.20;109137;1256;58230;-68
2024/01/29 04:11:22;;;;;;;30.30;17.80;;;;;;;2.30;67.94;102307.34;109135;1261;58240;-68
2024/01/29 04:13:50;;;;;;;29.50;18.00;;;;;;;2.30;67.93;102306.82;109081;1257;64920;-67
2024/01/29 04:16:19;;;;;;;30.10;18.20;;;;;;;2.29;67.96;102306.14;109150;1257;58176;-68
2024/01/29 04:18:46;;;;;;;28.70;18.10;;;;;;;2.28;68.10;102305.46;109206;1257;63744;-68
2024/01/29 04:21:14;;;;;;;30.60;19.50;;;;;;;2.27;68.17;102305.65;109162;1257;58252;-68
2024/01/29 04:23:42;;;;;;;31.70;19.10;;;;;;;2.29;68.10;102310.65;109090;1257;58084;-67
2024/01/29 04:26:10;;;;;;;31.80;18.90;;;;;;;2.31;68.02;102309.41;109128;1257;64926;-67
2024/01/29 04:28:38;;;;;;;31.00;20.00;;;;;;;2.32;68.00;102310.98;109100;1257;58251;-67
2024/01/29 04:31:06;;;;;;;31.40;19.80;;;;;;;2.31;67.99;102313.41;109183;1257;63725;-67
2024/01/29 04:33:38;;;;;;;32.50;20.20;;;;;;;2.30;67.96;102311.33;109097;1257;58245;-66
2024/01/29 04:36:06;;;;;;;38.70;25.10;;;;;;;2.29;68.01;102314.64;109156;1259;58124;-68
2024/01/29 04:38:34;;;;;;;33.70;22.00;;;;;;;2.27;68.12;102317.13;109232;1257;64013;-67
2024/01/29 04:41:02;;;;;;;31.30;20.10;;;;;;;2.27;68.14;102318.17;109143;1256;58211;-67
2024/01/29 04:43:30;;;;;;;33.20;20.60;;;;;;;2.27;68.15;102318.86;109119;1257;62447;-67
2024/01/29 04:45:59;;;;;;;33.00;19.60;;;;;;;2.26;68.21;102318.17;109112;1257;58668;-67
2024/01/29 04:48:27;;;;;;;31.90;20.60;;;;;;;2.26;68.15;102320.27;109221;1257;58181;-68
2024/01/29 04:50:55;;;;;;;32.60;19.70;;;;;;;2.25;68.16;102323.76;109121;1257;64968;-67
2024/01/29 04:53:22;;;;;;;31.60;19.60;;;;;;;2.27;68.12;102323.91;109128;1257;58322;-67
2024/01/29 04:55:50;;;;;;;32.50;19.90;;;;;;;2.02;68.76;102327.71;109119;1257;63824;-69
2024/01/29 04:58:18;;;;;;;30.10;19.60;;;;;;;2.25;68.32;102330.36;109066;1262;58074;-67
2024/01/29 05:00:46;;;;;;;30.50;19.60;;;;;;;2.33;68.09;102332.88;109152;1258;58387;-67
2024/01/29 05:03:14;;;;;;;31.60;19.80;;;;;;;2.35;68.00;102338.05;109146;1257;64964;-68
2024/01/29 05:05:43;;;;;;;33.10;19.80;;;;;;;2.37;67.96;102341.68;109131;1257;58171;-67
2024/01/29 05:08:13;;;;;;;34.60;20.60;;;;;;;2.37;67.95;102344.98;109143;1257;63788;-68
2024/01/29 05:10:43;;;;;;;33.10;20.80;;;;;;;2.37;68.01;102352.27;109148;1257;58211;-68
2024/01/29 05:13:15;;;;;;;32.10;20.50;;;;;;;2.38;68.01;102351.39;109113;1257;58122;-69
2024/01/29 05:15:46;;;;;;;29.60;19.60;;;;;;;2.37;67.95;102357.66;109159;1257;66161;-69
2024/01/29 05:18:17;;;;;;;31.40;18.80;;;;;;;2.37;67.85;102362.19;109095;1257;58217;-67
2024/01/29 05:20:49;;;;;;;32.20;20.30;;;;;;;2.36;67.96;102366.21;109010;1257;62446;-67
2024/01/29 05:23:19;;;;;;;31.90;19.00;;;;;;;2.35;68.02;102373.70;109123;1257;58129;-67
2024/01/29 05:25:50;;;;;;;31.40;19.70;;;;;;;2.36;67.99;102375.59;109161;1257;58196;-67
2024/01/29 05:28:20;;;;;;;32.90;19.80;;;;;;;2.37;68.04;102376.44;109135;1257;63629;-67
2024/01/29 05:35:21;;;;;;;34.60;18.40;;;;;;;2.37;67.98;102383.59;109120;1256;63086;-69
2024/01/29 05:37:50;;;;;;;30.10;18.90;;;;;;;2.35;67.97;102386.04;109107;1256;58165;-69
2024/01/29 05:40:21;;;;;;;31.90;19.70;;;;;;;2.34;68.01;102391.43;109013;1256;58300;-68
2024/01/29 05:42:53;;;;;;;31.70;18.80;;;;;;;2.35;68.00;102393.00;109152;1257;63685;-68
2024/01/29 05:45:24;;;;;;;30.70;19.80;;;;;;;2.34;67.99;102392.84;109142;1257;58203;-69
2024/01/29 05:47:54;;;;;;;30.30;18.80;;;;;;;2.34;68.02;102393.36;109157;1257;63642;-68
2024/01/29 05:50:25;;;;;;;30.80;19.00;;;;;;;2.33;67.99;102391.28;109111;1260;58139;-69
2024/01/29 05:52:55;;;;;;;34.70;18.90;;;;;;;2.32;68.07;102390.77;109135;1257;58038;-68
2024/01/29 05:55:24;;;;;;;30.50;18.10;;;;;;;2.35;68.03;102394.91;109150;1256;65141;-68
2024/01/29 05:57:55;;;;;;;31.20;19.00;;;;;;;2.36;68.02;102397.51;109148;1256;58197;-68
2024/01/29 06:00:26;;;;;;;32.90;17.40;;;;;;;2.36;68.01;102398.71;109122;1257;64746;-68
2024/01/29 06:02:57;;;;;;;27.60;17.00;;;;;;;2.36;68.00;102402.89;109132;1257;58590;-68
2024/01/29 06:05:28;;;;;;;29.80;17.30;;;;;;;2.36;68.00;102403.07;109120;1257;58206;-68
2024/01/29 06:15:31;;;;;;;29.80;18.20;;;;;;;2.18;68.55;102409.36;102605;1294;600971;-69
2024/01/29 06:17:59;;;;;;;28.60;18.10;;;;;;;2.28;68.33;102408.72;104703;1269;59263;-69
2024/01/29 06:20:27;;;;;;;27.50;16.90;;;;;;;2.32;68.16;102410.76;104774;1270;59250;-69
2024/01/29 06:22:55;;;;;;;31.80;18.50;;;;;;;2.33;68.11;102409.54;104763;1264;62090;-68
2024/01/29 06:25:22;;;;;;;30.80;18.00;;;;;;;2.32;68.13;102408.31;104513;1267;59210;-68
2024/01/29 06:27:50;;;;;;;28.10;18.10;;;;;;;2.30;68.06;102410.94;104466;1269;63689;-69
2024/01/29 06:37:34;;;;;;;28.60;17.70;;;;;;;2.29;68.12;102424.34;102394;1295;600909;-68
2024/01/29 06:40:01;;;;;;;28.60;17.00;;;;;;;2.28;68.06;102432.17;104664;1267;59267;-68
2024/01/29 06:42:29;;;;;;;28.50;17.70;;;;;;;2.29;68.15;102435.45;104321;1274;59354;-69
2024/01/29 06:44:58;;;;;;;27.90;16.60;;;;;;;2.27;68.18;102434.96;104269;1273;62100;-67
2024/01/29 06:47:26;;;;;;;29.10;17.60;;;;;;;2.20;68.35;102439.23;104517;1273;59295;-69
2024/01/29 06:49:58;;;;;;;28.50;17.40;;;;;;;2.18;68.46;102445.34;104530;1267;62749;-69
2024/01/29 06:52:27;;;;;;;27.60;17.30;;;;;;;2.16;68.53;102450.41;104589;1270;59339;-69
2024/01/29 07:02:51;;;;;;;26.90;17.10;;;;;;;2.17;68.49;102460.83;102671;1288;609542;-69
2024/01/29 07:05:18;;;;;;;27.00;16.70;;;;;;;2.16;68.63;102467.96;105136;1257;59673;-67
2024/01/29 07:07:46;;;;;;;26.20;16.30;;;;;;;2.19;68.57;102472.27;105240;1259;59359;-70
2024/01/29 07:10:14;;;;;;;27.40;16.50;;;;;;;2.20;68.64;102473.46;105078;1259;65388;-69
2024/01/29 07:12:41;;;;;;;28.00;17.20;;;;;;;2.21;68.61;102478.67;105593;1262;60191;-69
2024/01/29 07:15:09;;;;;;;28.20;17.20;;;;;;;2.23;68.65;102481.45;104992;1264;202284;-70
2024/01/29 07:17:37;;;;;;;25.80;16.60;;;;;;;2.25;68.64;102481.07;105318;1262;59352;-72
2024/01/29 07:20:05;;;;;;;27.10;16.60;;;;;;;2.27;68.62;102485.04;104997;1256;59353;-69
2024/01/29 07:22:37;;;;;;;27.90;17.70;;;;;;;2.27;68.63;102487.13;105325;1260;66123;-69
2024/01/29 07:25:09;;;;;;;29.40;17.30;;;;;;;2.29;68.64;102491.96;105689;1257;59167;-71
2024/01/29 07:27:36;;;;;;;27.30;16.40;;;;;;;2.30;68.68;102493.88;105413;1256;64055;-71
2024/01/29 07:30:04;;;;;;;30.80;18.00;;;;;;;2.32;68.62;102491.77;105355;1256;59544;-69
2024/01/29 07:32:32;;;;;;;29.20;17.70;;;;;;;2.34;68.68;102492.98;105853;1259;59553;-69
2024/01/29 07:35:00;;;;;;;28.70;18.10;;;;;;;2.35;68.72;102490.52;106120;1254;63067;-69
2024/01/29 07:37:28;;;;;;;30.80;18.50;;;;;;;2.36;68.61;102491.38;106231;1251;59779;-69
2024/01/29 07:39:55;;;;;;;29.70;18.20;;;;;;;2.37;68.58;102490.83;106168;1252;62808;-71
2024/01/29 07:42:23;;;;;;;30.20;17.70;;;;;;;2.39;68.65;102488.38;106077;1254;59548;-69
2024/01/29 07:44:51;;;;;;;33.00;18.10;;;;;;;2.41;68.61;102491.32;106002;1253;59725;-69
2024/01/29 07:47:18;;;;;;;31.20;18.70;;;;;;;2.43;68.60;102491.30;105773;1255;64259;-69
2024/01/29 07:49:47;;;;;;;30.20;18.50;;;;;;;2.46;68.63;102488.30;106009;1253;59672;-70
2024/01/29 07:52:14;;;;;;;29.70;18.00;;;;;;;2.50;68.63;102492.41;105624;1257;62692;-70
2024/01/29 07:54:41;;;;;;;27.40;17.30;;;;;;;2.53;68.64;102493.61;106156;1256;59503;-70
2024/01/29 07:57:08;;;;;;;33.00;17.70;;;;;;;2.55;68.49;102498.80;105906;1251;60404;-68
2024/01/29 07:59:36;;;;;;;27.90;18.00;;;;;;;2.57;68.37;102498.95;106047;1253;64364;-68
2024/01/29 08:02:03;;;;;;;29.10;17.30;;;;;;;2.57;68.27;102500.15;105843;1256;59651;-68
2024/01/29 08:04:32;;;;;;;28.00;18.10;;;;;;;2.60;68.31;102501.52;105677;1251;65730;-70
2024/01/29 08:07:01;;;;;;;26.20;16.80;;;;;;;2.62;68.29;102504.80;105559;1254;59624;-69
2024/01/29 08:09:28;;;;;;;27.30;17.20;;;;;;;2.64;68.27;102506.88;105601;1251;59704;-69
2024/01/29 08:11:56;;;;;;;31.40;18.70;;;;;;;2.65;68.24;102509.63;105636;1253;64996;-69
2024/01/29 08:14:23;;;;;;;29.30;18.90;;;;;;;2.66;68.14;102513.61;105569;1251;60638;-70
2024/01/29 08:16:51;;;;;;;32.80;19.00;;;;;;;2.69;68.16;102513.76;105626;1251;63917;-71
2024/01/29 08:19:18;;;;;;;30.10;18.10;;;;;;;2.73;68.24;102517.55;105630;1253;59548;-70
2024/01/29 08:21:47;;;;;;;33.20;20.20;;;;;;;2.77;68.03;102521.13;105733;1253;59645;-70
2024/01/29 08:24:14;;;;;;;30.70;18.10;;;;;;;2.78;68.02;102523.20;105843;1252;66057;-69
2024/01/29 08:26:44;;;;;;;32.90;19.30;;;;;;;2.79;67.94;102525.45;106237;1256;59529;-71
2024/01/29 08:29:12;;;;;;;33.30;19.30;;;;;;;2.81;67.83;102530.48;106655;1250;64271;-70
2024/01/29 08:31:40;;;;;;;33.50;18.60;;;;;;;2.83;67.83;102533.58;106549;1251;59776;-68
2024/01/29 08:34:09;;;;;;;32.10;18.40;;;;;;;2.86;67.80;102532.50;105539;1251;60245;-68
2024/01/29 08:36:37;;;;;;;33.30;19.20;;;;;;;2.87;67.65;102532.48;105839;1254;64444;-69
2024/01/29 08:39:03;;;;;;;32.20;18.60;;;;;;;2.86;67.59;102534.94;106240;1250;60317;-67
2024/01/29 08:41:30;;;;;;;31.50;19.10;;;;;;;2.86;67.60;102538.40;105862;1251;63910;-69
2024/01/29 08:43:57;;;;;;;32.70;19.00;;;;;;;2.90;67.68;102537.86;105634;1256;59558;-69
2024/01/29 08:46:27;;;;;;;34.00;19.60;;;;;;;2.95;67.47;102540.56;105702;1256;61344;-71
2024/01/29 08:48:57;;;;;;;31.10;18.50;;;;;;;2.98;67.40;102546.44;106088;1251;66201;-73
2024/01/29 08:51:25;;;;;;;31.20;19.60;;;;;;;3.01;67.39;102545.70;106092;1251;59612;-72
2024/01/29 08:53:52;;;;;;;31.90;19.50;;;;;;;3.03;67.26;102544.64;106025;1251;74078;-73
2024/01/29 08:56:20;;;;;;;30.20;18.30;;;;;;;3.04;67.14;102548.63;106309;1251;59608;-73
2024/01/29 08:58:46;;;;;;;27.00;18.00;;;;;;;3.07;67.14;102546.48;106248;1252;59628;-73
2024/01/29 09:01:13;;;;;;;29.40;18.10;;;;;;;3.10;67.07;102548.02;105561;1251;64408;-78
2024/01/29 09:03:41;;;;;;;31.80;19.00;;;;;;;3.12;67.05;102552.34;106520;1254;60325;-79
2024/01/29 09:06:09;;;;;;;29.90;18.70;;;;;;;3.16;67.01;102551.05;106219;1254;65411;-75
2024/01/29 09:08:37;;;;;;;28.60;17.80;;;;;;;3.20;66.90;102546.50;106155;1251;59648;-75
2024/01/29 09:11:04;;;;;;;28.40;17.80;;;;;;;3.22;66.84;102540.71;106117;1251;59535;-77
2024/01/29 09:13:31;;;;;;;26.40;17.10;;;;;;;3.24;66.78;102535.63;106145;1251;65257;-77
2024/01/29 09:15:58;;;;;;;31.00;18.60;;;;;;;3.27;66.72;102534.55;106500;1250;60148;-73
2024/01/29 09:18:25;;;;;;;27.30;17.80;;;;;;;3.30;66.64;102532.78;106254;1253;64747;-72
2024/01/29 09:20:52;;;;;;;28.60;17.80;;;;;;;3.31;66.54;102532.05;106222;1251;59647;-73
2024/01/29 09:23:19;;;;;;;27.20;17.50;;;;;;;3.33;66.52;102537.42;106274;1251;59615;-72
2024/01/29 09:25:45;;;;;;;23.50;16.10;;;;;;;3.35;66.51;102535.99;106237;1250;74514;-73
2024/01/29 09:28:12;;;;;;;26.50;16.90;;;;;;;3.35;66.26;102536.86;106174;1251;59776;-72
2024/01/29 09:30:39;;;;;;;28.50;17.70;;;;;;;3.36;66.23;102540.67;106181;1251;64063;-72
2024/01/29 09:33:09;;;;;;;28.10;17.60;;;;;;;3.39;66.26;102543.42;105902;1251;60069;-72
2024/01/29 09:35:48;;;;;;;32.80;18.50;;;;;;;3.42;66.05;102545.11;106182;1251;59600;-72
2024/01/29 09:38:15;;;;;;;28.10;18.00;;;;;;;3.44;65.94;102548.91;106138;1250;64141;-72
2024/01/29 09:40:44;;;;;;;26.40;16.90;;;;;;;3.44;65.94;102548.56;106169;1250;59660;-73
2024/01/29 09:43:12;;;;;;;27.90;17.40;;;;;;;3.45;65.90;102551.34;106492;1251;62684;-74
2024/01/29 09:45:40;;;;;;;27.00;18.10;;;;;;;3.46;65.76;102561.77;106271;1251;59660;-72
2024/01/29 09:48:08;;;;;;;26.30;16.90;;;;;;;3.50;65.84;102568.88;105962;1251;59537;-72
2024/01/29 09:50:37;;;;;;;26.20;16.30;;;;;;;3.52;65.66;102568.14;106255;1253;64406;-73
2024/01/29 09:53:04;;;;;;;29.20;18.60;;;;;;;3.52;65.46;102563.61;106066;1257;60390;-72
2024/01/29 09:55:31;;;;;;;29.70;18.20;;;;;;;3.49;65.33;102560.35;105988;1253;66264;-73
2024/01/29 09:57:58;;;;;;;29.60;18.40;;;;;;;3.47;65.44;102558.11;106233;1253;59776;-73
2024/01/29 10:00:25;;;;;;;29.10;19.20;;;;;;;3.50;65.54;102555.12;106152;1250;60184;-72
2024/01/29 10:02:53;;;;;;;29.00;18.30;;;;;;;3.56;65.66;102555.71;106246;1253;66163;-72
2024/01/29 10:05:21;;;;;;;28.70;18.20;;;;;;;3.63;65.73;102556.98;106038;1256;59653;-72
2024/01/29 10:07:49;;;;;;;30.50;17.90;;;;;;;3.70;65.70;102557.92;106352;1253;64787;-76
2024/01/29 10:10:18;;;;;;;28.20;18.00;;;;;;;3.78;65.64;102555.55;106372;1257;59503;-73
2024/01/29 10:12:45;;;;;;;27.90;17.60;;;;;;;3.85;65.58;102556.81;106088;1256;59548;-72
2024/01/29 10:15:13;;;;;;;26.10;18.20;;;;;;;3.89;65.52;102555.69;105989;1253;65905;-72
2024/01/29 10:17:39;;;;;;;29.00;18.30;;;;;;;3.95;65.40;102558.39;105996;1251;59624;-71
2024/01/29 10:20:20;;;;;;;27.40;18.00;;;;;;;4.02;65.29;102557.04;106381;1255;63756;-71
2024/01/29 10:22:48;;;;;;;30.00;18.50;;;;;;;4.07;65.17;102555.41;106118;1256;59707;-73
2024/01/29 10:25:15;;;;;;;30.00;19.00;;;;;;;4.09;65.07;102553.96;106133;1260;59606;-70
2024/01/29 10:27:45;;;;;;;29.90;18.50;;;;;;;4.14;64.83;102546.88;106136;1253;74797;-69
2024/01/29 10:30:13;;;;;;;30.80;19.00;;;;;;;4.17;64.80;102543.35;106096;1253;60416;-70
2024/01/29 10:32:43;;;;;;;28.60;18.30;;;;;;;4.22;64.73;102543.27;106163;1256;66499;-71
2024/01/29 10:35:11;;;;;;;27.40;18.10;;;;;;;4.25;64.57;102541.82;106002;1253;59634;-69
2024/01/29 10:37:39;;;;;;;27.50;18.20;;;;;;;4.30;64.67;102541.71;105419;1259;59634;-69
2024/01/29 10:40:07;;;;;;;30.80;18.90;;;;;;;4.41;64.73;102537.33;105415;1260;66364;-78
2024/01/29 10:42:35;;;;;;;28.40;17.80;;;;;;;4.55;64.83;102538.09;105762;1256;59550;-77
2024/01/29 10:45:02;;;;;;;29.10;17.90;;;;;;;4.70;64.67;102525.75;105602;1258;65950;-78
2024/01/29 10:47:33;;;;;;;30.40;18.20;;;;;;;4.84;64.61;102523.02;106361;1251;60528;-77
2024/01/29 10:50:00;;;;;;;28.70;18.40;;;;;;;5.00;64.49;102525.10;105589;1251;60318;-80
2024/01/29 10:52:28;;;;;;;26.30;17.00;;;;;;;5.24;64.53;102523.00;105596;1258;74694;-76
2024/01/29 10:54:58;;;;;;;29.00;18.20;;;;;;;5.50;64.45;102518.73;105417;1260;59544;-81
2024/01/29 10:57:25;;;;;;;26.60;17.90;;;;;;;5.69;63.93;102515.10;105320;1253;66648;-80
2024/01/29 10:59:52;;;;;;;27.10;17.10;;;;;;;5.76;63.11;102517.90;105753;1251;59618;-81
2024/01/29 11:02:19;;;;;;;27.60;17.50;;;;;;;5.76;62.59;102516.15;105524;1256;59671;-79
2024/01/29 11:04:47;;;;;;;25.10;16.80;;;;;;;5.76;62.34;102510.73;105751;1251;66035;-78
2024/01/29 11:07:20;;;;;;;26.30;17.70;;;;;;;5.82;62.34;102506.40;105702;1250;60026;-80
2024/01/29 11:10:01;;;;;;;27.80;17.30;;;;;;;5.89;62.09;102509.73;105795;1251;65898;-80
2024/01/29 11:12:28;;;;;;;26.50;17.00;;;;;;;5.92;61.75;102512.45;105979;1250;60355;-80
2024/01/29 11:15:04;;;;;;;27.80;17.50;;;;;;;5.95;61.33;102511.34;105770;1251;61164;-74
2024/01/29 11:17:33;;;;;;;26.20;17.70;;;;;;;5.91;60.81;102508.98;106050;1251;66315;-79
2024/01/29 11:20:01;;;;;;;25.30;16.20;;;;;;;5.91;60.73;102511.27;105764;1250;60457;-80
2024/01/29 11:22:42;;;;;;;24.70;16.60;;;;;;;5.92;60.53;102511.23;105791;1251;65658;-79
2024/01/29 11:25:15;;;;;;;24.30;16.30;;;;;;;6.01;60.86;102508.39;105806;1250;61580;-79
2024/01/29 11:27:43;;;;;;;27.40;17.20;;;;;;;6.19;60.94;102511.90;105931;1258;60391;-73
2024/01/29 11:30:21;;;;;;;25.20;16.20;;;;;;;6.39;60.64;102510.67;105667;1255;67052;-76
2024/01/29 11:32:49;;;;;;;25.60;16.20;;;;;;;6.48;59.89;102506.90;105645;1256;60335;-79
2024/01/29 11:35:23;;;;;;;25.20;15.40;;;;;;;6.52;59.49;102508.71;105675;1251;65430;-76
2024/01/29 11:38:11;;;;;;;26.40;16.40;;;;;;;6.61;59.42;102510.76;105768;1250;60352;-79
2024/01/29 11:40:40;;;;;;;24.60;16.40;;;;;;;6.79;59.43;102510.58;106037;1251;60486;-78
2024/01/29 11:43:11;;;;;;;24.00;15.80;;;;;;;6.95;59.16;102514.66;105838;1254;66084;-78